Gilboa, WV (26671)

12:56 PM EST on February 08, 2016 (GMT -0500)
Summersville | | Change Station
CLOSE
Current Station
Personal Weather Station
Location: Summersville, WV
Elevation: 1932 ft
Nearby Weather Stations
Active Advisory: Winter Weather Advisory

Elev 1932 ft 38.30 °N, 80.84 °W | Updated 10 minutes ago

Overcast
Overcast
37.9 °F
Feels Like 38 °F
N
1.6
Wind Variable Wind from SW

Today
High -- | Low -- °F
--% Chance of Precip.
Yesterday
High -- | Low -- °F
Precip. -- in
Pressure 29.64 in
Visibility 10.0 miles
Clouds Mostly Cloudy 3000 ft
Mostly Cloudy 6500 ft
Windchill 38 °F
Dew Point 32 °F
Humidity 78%
Rainfall 0.00 in
Snow Depth Not available.
7:22 AM 5:53 PM
New Moon, 0% visible
METAR KCRW 081754Z 23012G19KT 10SM BKN030 BKN065 06/M01 A2963 RMK AO2 RAB04E34 SLP036 P0000 60000 T00611006 10061 21006 58012 $
Pressure 29.64 in
Visibility 10.0 miles
Clouds Mostly Cloudy 3000 ft
Mostly Cloudy 6500 ft
Windchill 38 °F
Dew Point 32 °F
Humidity 78%
Rainfall 0.00 in
Snow Depth Not available.
7:22 AM 5:53 PM
New Moon, 0% visible
METAR KCRW 081754Z 23012G19KT 10SM BKN030 BKN065 06/M01 A2963 RMK AO2 RAB04E34 SLP036 P0000 60000 T00611006 10061 21006 58012 $

10-Day Weather Forecast

Almanac

Astronomy

Feb. 08, 2016 Rise Set
Actual Time
Civil Twilight
Nautical Twilight
Astronomical Twilight
Moon
Length of Visible Light
Length of Day
Tomorrow will be .
, % of the Moon is Illuminated

Today's Extremes

State Highs State Lows

Community

WunderPhotos

Upload Photos

1,891,476 photos uploaded!

WunderBlog® & News

Nearby

Air Quality

  Air Quality AQ Index Pollutant
Not available.

Snow Depth

Station Depth Elevation

Earthquake Activity

City Distance Mag. Time & Date
Minimum magnitude displayed is 2.5.

Coastal Water Temperatures

Place Temperature

Stations

Nearby Weather Stations

Station Location Temp. Windchill Dew Point Humidity Wind Precip. Elev Updated Type
                   

Watches & Warnings

Winter Weather Advisory
Issued: 10:31 AM EST Feb. 8, 2016 – National Weather Service

... Winter Weather Advisory remains in effect from 7 PM this
evening to 7 am EST Wednesday...

* hazard types... snow.

* Snow accumulations... snow accumulation of 2 to 6 inches over a
36 hour period. Some settling and melting of fallen snow is
expected to occur during the advisory period.

* Timing... snow will be around for most of the week with varying
intensity.

* Impacts... travel may be difficult at times. Visibilities will
be limited at times.

Precautionary/preparedness actions...

A Winter Weather Advisory for snow means that periods of snow
will cause primarily travel difficulties. Be prepared for snow
covered roads and limited visibilities... and use caution while
driving.